createdAt,value
2023-05-05T00:02:25.482Z,11.21
2023-05-05T00:04:53.052Z,11.19
2023-05-05T00:07:19.671Z,11.19
2023-05-05T00:09:46.214Z,11.14
2023-05-05T00:12:12.812Z,11.14
2023-05-05T00:14:39.445Z,11.14
2023-05-05T00:17:06.088Z,11.17
2023-05-05T00:19:32.738Z,11.12
2023-05-05T00:21:59.364Z,11.09
2023-05-05T00:24:25.964Z,11.05
2023-05-05T00:26:52.539Z,11.02
2023-05-05T00:29:19.150Z,10.94
2023-05-05T00:31:46.020Z,10.83
2023-05-05T00:34:12.572Z,10.76
2023-05-05T00:36:39.149Z,10.70
2023-05-05T00:39:05.772Z,10.64
2023-05-05T00:41:32.342Z,10.58
2023-05-05T00:43:58.921Z,10.56
2023-05-05T00:46:28.060Z,10.51
2023-05-05T00:48:55.355Z,10.42
2023-05-05T00:51:22.274Z,10.35
2023-05-05T00:53:49.181Z,10.29
2023-05-05T00:56:17.385Z,10.22
2023-05-05T00:58:44.339Z,10.12
2023-05-05T01:01:12.091Z,10.05
2023-05-05T01:03:39.946Z,9.95
2023-05-05T01:06:06.855Z,9.85
2023-05-05T01:09:02.126Z,9.74
2023-05-05T01:11:48.770Z,9.64
2023-05-05T01:14:33.999Z,9.60
2023-05-05T01:17:08.031Z,9.48
2023-05-05T01:19:53.112Z,9.39
2023-05-05T01:22:24.864Z,9.35
2023-05-05T01:25:11.435Z,9.25
2023-05-05T01:27:59.542Z,9.20
2023-05-05T01:30:50.034Z,9.18
2023-05-05T01:33:23.244Z,9.10
2023-05-05T01:35:57.770Z,9.04
2023-05-05T01:38:35.584Z,8.97
2023-05-05T01:41:19.420Z,8.90
2023-05-05T01:43:50.255Z,8.83
2023-05-05T01:46:19.284Z,8.69
2023-05-05T01:48:48.304Z,8.60
2023-05-05T01:51:17.917Z,8.59
2023-05-05T01:53:47.185Z,8.55
2023-05-05T01:56:16.428Z,8.53
2023-05-05T01:58:45.162Z,8.47
2023-05-05T02:01:13.508Z,8.43
2023-05-05T02:03:42.090Z,8.33
2023-05-05T02:06:11.214Z,8.28
2023-05-05T02:08:39.442Z,8.24
2023-05-05T02:11:09.384Z,8.19
2023-05-05T02:13:37.741Z,8.16
2023-05-05T02:16:05.435Z,8.15
2023-05-05T02:18:35.854Z,8.11
2023-05-05T02:21:03.586Z,8.09
2023-05-05T02:23:31.234Z,8.02
2023-05-05T02:26:04.920Z,7.96
2023-05-05T02:28:48.875Z,7.85
2023-05-05T02:31:17.822Z,7.81
2023-05-05T02:33:47.511Z,7.79
2023-05-05T02:36:21.944Z,7.79
2023-05-05T02:38:54.158Z,7.80
2023-05-05T02:41:22.413Z,7.75
2023-05-05T02:43:51.120Z,7.72
2023-05-05T02:46:18.139Z,7.66
2023-05-05T02:48:44.935Z,7.63
2023-05-05T02:51:11.597Z,7.59
2023-05-05T02:53:38.861Z,7.54
2023-05-05T02:56:26.664Z,7.57
2023-05-05T02:59:16.328Z,7.52
2023-05-05T03:01:51.292Z,7.49
2023-05-05T03:04:35.092Z,7.48
2023-05-05T03:07:10.960Z,7.45
2023-05-05T03:09:41.774Z,7.44
2023-05-05T03:12:16.999Z,7.42
2023-05-05T03:14:46.037Z,7.34
2023-05-05T03:17:14.660Z,7.30
2023-05-05T03:19:43.231Z,7.24
2023-05-05T03:22:10.198Z,7.23
2023-05-05T03:24:36.816Z,7.20
2023-05-05T03:27:03.463Z,7.18
2023-05-05T03:29:30.278Z,7.19
2023-05-05T03:31:56.972Z,7.16
2023-05-05T03:34:23.568Z,7.12
2023-05-05T03:36:50.122Z,7.11
2023-05-05T03:39:17.099Z,7.09
2023-05-05T03:41:43.620Z,7.07
2023-05-05T03:44:10.528Z,7.03
2023-05-05T03:46:37.115Z,7.03
2023-05-05T03:49:03.662Z,7.05
2023-05-05T03:51:30.225Z,7.05
2023-05-05T03:53:56.943Z,7.06
2023-05-05T03:56:23.465Z,7.07
2023-05-05T03:58:50.038Z,7.10
2023-05-05T04:01:16.757Z,7.11
2023-05-05T04:03:43.559Z,7.10
2023-05-05T04:06:10.290Z,7.14
2023-05-05T04:08:36.893Z,7.18
2023-05-05T04:11:03.598Z,7.22
2023-05-05T04:13:30.283Z,7.29
2023-05-05T04:15:56.959Z,7.35
2023-05-05T04:18:23.559Z,7.41
2023-05-05T04:20:50.124Z,7.48
2023-05-05T04:23:16.704Z,7.58
2023-05-05T04:25:43.262Z,7.68
2023-05-05T04:28:09.801Z,7.77
2023-05-05T04:30:36.347Z,7.86
2023-05-05T04:33:03.016Z,7.96
2023-05-05T04:35:29.636Z,8.02
2023-05-05T04:37:56.247Z,8.09
2023-05-05T04:40:22.774Z,8.16
2023-05-05T04:42:49.496Z,8.22
2023-05-05T04:45:16.206Z,8.27
2023-05-05T04:47:42.897Z,8.35
2023-05-05T04:50:10.341Z,8.38
2023-05-05T04:52:37.681Z,8.42
2023-05-05T04:55:04.716Z,8.51
2023-05-05T04:57:31.579Z,8.58
2023-05-05T04:59:59.574Z,8.67
2023-05-05T05:02:27.115Z,8.75
2023-05-05T05:04:53.732Z,8.82
2023-05-05T05:07:20.371Z,8.89
2023-05-05T05:09:46.979Z,8.96
2023-05-05T05:12:13.548Z,9.03
2023-05-05T05:14:40.451Z,9.08
2023-05-05T05:17:07.025Z,9.19
2023-05-05T05:19:33.872Z,9.30
2023-05-05T05:22:00.682Z,9.42
2023-05-05T05:24:27.300Z,9.52
2023-05-05T05:26:53.894Z,9.63
2023-05-05T05:29:20.572Z,9.76
2023-05-05T05:31:47.207Z,9.88
2023-05-05T05:34:13.896Z,10.01
2023-05-05T05:36:40.555Z,10.14
2023-05-05T05:39:07.104Z,10.26
2023-05-05T05:41:33.750Z,10.42
2023-05-05T05:44:00.418Z,10.58
2023-05-05T05:46:26.968Z,10.74
2023-05-05T05:48:53.558Z,10.91
2023-05-05T05:51:20.526Z,11.05
2023-05-05T05:53:47.083Z,11.18
2023-05-05T05:56:13.643Z,11.30
2023-05-05T05:58:40.729Z,11.40
2023-05-05T06:01:07.295Z,11.51
2023-05-05T06:03:34.229Z,11.63
2023-05-05T06:06:00.989Z,11.75
2023-05-05T06:08:27.759Z,11.84
2023-05-05T06:10:54.392Z,11.92
2023-05-05T06:13:21.565Z,12.02
2023-05-05T06:15:48.194Z,12.14
2023-05-05T06:18:14.879Z,12.26
2023-05-05T06:20:41.712Z,12.31
2023-05-05T06:23:08.271Z,12.41
2023-05-05T06:25:34.877Z,12.49
2023-05-05T06:28:02.117Z,12.56
2023-05-05T06:30:28.819Z,12.68
2023-05-05T06:32:55.818Z,12.78
2023-05-05T06:35:22.555Z,12.89
2023-05-05T06:37:49.139Z,12.97
2023-05-05T06:40:15.875Z,13.08
2023-05-05T06:42:42.920Z,13.19
2023-05-05T06:45:09.780Z,13.34
2023-05-05T06:47:36.567Z,13.46
2023-05-05T06:50:03.872Z,13.56
2023-05-05T06:52:30.471Z,13.69
2023-05-05T06:54:57.017Z,13.79
2023-05-05T06:57:23.754Z,13.89
2023-05-05T06:59:50.315Z,13.99
2023-05-05T07:02:16.915Z,14.12
2023-05-05T07:04:44.413Z,14.19
2023-05-05T07:07:11.016Z,14.22
2023-05-05T07:09:37.610Z,14.29
2023-05-05T07:12:04.465Z,14.32
2023-05-05T07:14:31.309Z,14.40
2023-05-05T07:16:58.154Z,14.51
2023-05-05T07:19:24.993Z,14.58
2023-05-05T07:21:52.100Z,14.67
2023-05-05T07:24:18.748Z,14.75
2023-05-05T07:26:45.424Z,14.80
2023-05-05T07:29:12.054Z,14.84
2023-05-05T07:31:38.685Z,14.88
2023-05-05T07:34:05.337Z,14.89
2023-05-05T07:36:32.929Z,14.95
2023-05-05T07:39:00.437Z,15.01
2023-05-05T07:41:27.052Z,15.07
2023-05-05T07:43:53.655Z,15.15
2023-05-05T07:46:20.246Z,15.24
2023-05-05T07:48:47.188Z,15.28
2023-05-05T07:51:13.766Z,15.32
2023-05-05T07:53:41.240Z,15.40
2023-05-05T07:56:08.837Z,15.58
2023-05-05T07:58:35.486Z,15.74
2023-05-05T08:01:02.822Z,15.90
2023-05-05T08:03:29.662Z,16.00
2023-05-05T08:05:56.547Z,16.05
2023-05-05T08:08:24.937Z,16.18
2023-05-05T08:10:53.036Z,16.27
2023-05-05T08:13:19.971Z,16.36
2023-05-05T08:15:46.648Z,16.48
2023-05-05T08:18:14.096Z,16.57
2023-05-05T08:20:40.717Z,16.72
2023-05-05T08:23:07.282Z,16.70
2023-05-05T08:25:33.881Z,16.66
2023-05-05T08:28:01.728Z,16.77
2023-05-05T08:30:28.500Z,16.86
2023-05-05T08:32:55.369Z,16.99
2023-05-05T08:35:22.204Z,17.17
2023-05-05T08:37:48.796Z,17.28
2023-05-05T08:40:15.437Z,17.41
2023-05-05T08:42:42.653Z,17.62
2023-05-05T08:45:10.427Z,17.74
2023-05-05T08:47:38.380Z,17.67
2023-05-05T08:50:08.079Z,17.64
2023-05-05T08:52:45.823Z,17.80
2023-05-05T08:55:21.715Z,17.90
2023-05-05T08:57:58.456Z,17.81
2023-05-05T09:00:27.082Z,17.84
2023-05-05T09:02:56.960Z,17.95
2023-05-05T09:05:24.280Z,18.11
2023-05-05T09:07:51.642Z,18.33
2023-05-05T09:10:19.257Z,18.37
2023-05-05T09:12:46.211Z,18.32
2023-05-05T09:15:15.190Z,18.40
2023-05-05T09:17:42.431Z,18.48
2023-05-05T09:20:11.187Z,18.51
2023-05-05T09:22:46.279Z,18.60
2023-05-05T09:25:15.547Z,18.70
2023-05-05T09:27:45.831Z,18.83
2023-05-05T09:30:23.585Z,18.84
2023-05-05T09:32:51.959Z,19.09
2023-05-05T09:35:20.139Z,19.40
2023-05-05T09:37:47.557Z,19.61
2023-05-05T09:40:15.712Z,19.72
2023-05-05T09:42:42.742Z,19.81
2023-05-05T09:45:18.140Z,19.79
2023-05-05T09:47:46.414Z,19.71
2023-05-05T09:50:18.677Z,19.85
2023-05-05T09:52:56.117Z,20.08
2023-05-05T09:55:23.897Z,20.09
2023-05-05T09:57:50.804Z,20.01
2023-05-05T10:00:18.112Z,20.23
2023-05-05T10:02:45.432Z,20.39
2023-05-05T10:05:13.494Z,20.59
2023-05-05T10:07:42.013Z,20.69
2023-05-05T10:10:11.906Z,20.51
2023-05-05T10:12:39.717Z,20.64
2023-05-05T10:15:08.553Z,20.72
2023-05-05T10:18:05.367Z,20.91
2023-05-05T10:20:34.460Z,21.20
2023-05-05T10:23:05.598Z,21.23
2023-05-05T10:25:39.157Z,21.15
2023-05-05T10:28:06.775Z,20.79
2023-05-05T10:30:41.588Z,20.74
2023-05-05T10:35:53.911Z,20.99
2023-05-05T10:38:21.590Z,21.09
2023-05-05T10:40:48.883Z,21.17
2023-05-05T10:43:15.763Z,21.42
2023-05-05T10:45:43.256Z,21.67
2023-05-05T10:48:18.851Z,21.98
2023-05-05T10:50:52.865Z,22.26
2023-05-05T10:53:26.080Z,22.04
2023-05-05T10:56:04.392Z,22.16
2023-05-05T10:58:58.208Z,22.36
2023-05-05T11:01:36.470Z,22.37
2023-05-05T11:04:23.625Z,22.41
2023-05-05T11:07:14.722Z,22.37
2023-05-05T11:09:59.209Z,22.55
2023-05-05T11:12:25.826Z,22.68
2023-05-05T11:15:26.375Z,22.79
2023-05-05T11:17:54.347Z,22.69
2023-05-05T11:20:45.449Z,22.74
2023-05-05T11:23:13.367Z,23.00
2023-05-05T11:25:45.340Z,23.13
2023-05-05T11:28:31.531Z,23.48
2023-05-05T11:31:00.892Z,23.88
2023-05-05T11:33:37.731Z,24.16
2023-05-05T11:36:09.443Z,24.44
2023-05-05T11:38:39.090Z,24.66
2023-05-05T11:41:17.340Z,24.89
2023-05-05T11:43:44.041Z,25.15
2023-05-05T11:46:14.777Z,25.10
2023-05-05T11:48:48.532Z,25.23
2023-05-05T11:51:18.941Z,25.31
2023-05-05T11:53:47.472Z,25.37
2023-05-05T11:56:20.466Z,25.44
2023-05-05T11:59:04.808Z,25.70
2023-05-05T12:01:31.410Z,25.80
2023-05-05T12:03:58.390Z,25.98
2023-05-05T12:06:26.022Z,26.11
2023-05-05T12:08:52.625Z,25.85
2023-05-05T12:11:19.295Z,25.82
2023-05-05T12:13:46.444Z,26.05
2023-05-05T12:16:17.196Z,26.14
2023-05-05T12:18:43.787Z,26.18
2023-05-05T12:21:28.308Z,26.31
2023-05-05T12:23:54.899Z,26.40
2023-05-05T12:26:31.878Z,26.47
2023-05-05T12:28:59.746Z,26.35
2023-05-05T12:31:41.382Z,26.54
2023-05-05T12:34:11.941Z,26.68
2023-05-05T12:36:39.549Z,26.78
2023-05-05T12:39:06.397Z,26.92
2023-05-05T12:41:33.685Z,27.00
2023-05-05T12:44:03.229Z,26.93
2023-05-05T12:46:31.121Z,27.00
2023-05-05T12:49:05.927Z,27.06
2023-05-05T12:51:34.342Z,26.81
2023-05-05T12:54:05.456Z,26.57
2023-05-05T12:56:36.237Z,26.61
2023-05-05T12:59:10.330Z,26.57
2023-05-05T13:01:49.208Z,26.71
2023-05-05T13:04:16.833Z,26.96
2023-05-05T13:06:44.995Z,26.91
2023-05-05T13:09:36.531Z,26.67
2023-05-05T13:12:04.438Z,26.73
2023-05-05T13:14:34.913Z,26.51
2023-05-05T13:17:01.538Z,26.40
2023-05-05T13:19:28.354Z,26.21
2023-05-05T13:21:56.517Z,26.33
2023-05-05T13:24:31.622Z,26.53
2023-05-05T13:27:05.225Z,26.44
2023-05-05T13:29:32.496Z,26.54
2023-05-05T13:31:59.279Z,26.62
2023-05-05T13:34:26.184Z,26.87
2023-05-05T13:36:53.028Z,27.14
2023-05-05T13:39:19.953Z,27.41
2023-05-05T13:41:46.594Z,27.78
2023-05-05T13:44:14.050Z,28.19
2023-05-05T13:46:41.953Z,28.27
2023-05-05T13:49:08.789Z,28.66
2023-05-05T13:51:35.368Z,28.58
2023-05-05T13:54:02.382Z,28.40
2023-05-05T13:56:29.059Z,28.19
2023-05-05T13:58:55.675Z,27.88
2023-05-05T14:01:22.570Z,28.21
2023-05-05T14:03:49.205Z,28.39
2023-05-05T14:06:15.742Z,28.47
2023-05-05T14:08:42.691Z,29.04
2023-05-05T14:11:09.214Z,29.44
2023-05-05T14:13:35.792Z,29.51
2023-05-05T14:16:02.821Z,29.87
2023-05-05T14:18:29.719Z,29.51
2023-05-05T14:20:56.261Z,29.82
2023-05-05T14:23:22.870Z,30.28
2023-05-05T14:25:49.491Z,30.28
2023-05-05T14:28:16.212Z,29.70
2023-05-05T14:30:43.033Z,29.13
2023-05-05T14:33:09.575Z,29.36
2023-05-05T14:35:36.183Z,29.64
2023-05-05T14:38:02.760Z,29.24
2023-05-05T14:40:30.323Z,29.13
2023-05-05T14:42:57.783Z,28.66
2023-05-05T14:45:24.438Z,27.91
2023-05-05T14:47:51.034Z,27.20
2023-05-05T14:50:17.683Z,26.76
2023-05-05T14:52:44.610Z,26.90
2023-05-05T14:55:11.907Z,27.41
2023-05-05T14:57:38.877Z,28.45
2023-05-05T15:00:07.138Z,29.60
2023-05-05T15:02:33.941Z,30.25
2023-05-05T15:05:00.650Z,31.56
2023-05-05T15:07:28.621Z,32.07
2023-05-05T15:09:58.478Z,32.60
2023-05-05T15:12:26.032Z,33.10
2023-05-05T15:14:52.864Z,33.79
2023-05-05T15:17:19.566Z,33.56
2023-05-05T15:19:46.196Z,33.86
2023-05-05T15:22:12.784Z,33.92
2023-05-05T15:24:39.403Z,34.71
2023-05-05T15:27:06.194Z,34.01
2023-05-05T15:29:32.774Z,33.14
2023-05-05T15:31:59.352Z,33.77
2023-05-05T15:34:26.216Z,33.57
2023-05-05T15:36:52.819Z,33.69
2023-05-05T15:39:19.535Z,33.67
2023-05-05T15:41:46.206Z,33.64
2023-05-05T15:44:12.822Z,33.77
2023-05-05T15:46:39.844Z,33.67
2023-05-05T15:49:06.564Z,32.56
2023-05-05T15:51:33.241Z,32.27
2023-05-05T15:54:00.361Z,31.71
2023-05-05T15:56:27.589Z,31.56
2023-05-05T15:58:54.551Z,30.66
2023-05-05T16:01:21.188Z,30.42
2023-05-05T16:03:47.793Z,30.31
2023-05-05T16:06:14.402Z,30.05
2023-05-05T16:08:41.198Z,30.17
2023-05-05T16:11:07.807Z,30.34
2023-05-05T16:13:34.513Z,30.81
2023-05-05T16:16:01.439Z,30.94
2023-05-05T16:18:28.019Z,30.86
2023-05-05T16:20:54.580Z,31.04
2023-05-05T16:23:21.261Z,30.76
2023-05-05T16:25:47.832Z,29.62
2023-05-05T16:28:14.430Z,28.99
2023-05-05T16:30:42.847Z,28.32
2023-05-05T16:33:09.841Z,27.56
2023-05-05T16:35:36.686Z,27.47
2023-05-05T16:38:03.560Z,26.94
2023-05-05T16:40:30.302Z,26.66
2023-05-05T16:42:56.946Z,26.18
2023-05-05T16:45:24.371Z,25.89
2023-05-05T16:47:51.197Z,25.90
2023-05-05T16:50:17.938Z,25.43
2023-05-05T16:52:44.585Z,24.97
2023-05-05T16:55:11.551Z,24.75
2023-05-05T16:57:38.502Z,24.50
2023-05-05T17:00:10.289Z,24.17
2023-05-05T17:02:36.904Z,23.87
2023-05-05T17:05:03.786Z,23.82
2023-05-05T17:07:30.397Z,23.51
2023-05-05T17:09:56.964Z,23.27
2023-05-05T17:12:23.888Z,23.33
2023-05-05T17:14:51.332Z,23.14
2023-05-05T17:17:18.274Z,22.80
2023-05-05T17:19:44.908Z,22.75
2023-05-05T17:22:11.544Z,22.26
2023-05-05T17:24:38.123Z,21.92
2023-05-05T17:27:04.724Z,21.67
2023-05-05T17:29:31.372Z,21.48
2023-05-05T17:31:58.091Z,21.45
2023-05-05T17:34:24.732Z,21.37
2023-05-05T17:36:51.324Z,21.16
2023-05-05T17:39:17.982Z,20.87
2023-05-05T17:41:44.578Z,20.75
2023-05-05T17:44:11.118Z,20.67
2023-05-05T17:46:38.374Z,20.39
2023-05-05T17:49:05.148Z,20.02
2023-05-05T17:51:32.346Z,19.84
2023-05-05T17:53:58.880Z,19.56
2023-05-05T17:56:25.809Z,19.41
2023-05-05T17:58:53.051Z,19.24
2023-05-05T18:01:23.659Z,18.89
2023-05-05T18:03:50.607Z,18.69
2023-05-05T18:06:17.396Z,18.76
2023-05-05T18:08:44.792Z,18.77
2023-05-05T18:11:11.527Z,18.53
2023-05-05T18:13:38.881Z,18.24
2023-05-05T18:16:05.788Z,17.94
2023-05-05T18:18:32.707Z,17.70
2023-05-05T18:20:59.319Z,17.54
2023-05-05T18:23:26.134Z,17.26
2023-05-05T18:25:52.704Z,17.09
2023-05-05T18:28:19.317Z,17.06
2023-05-05T18:30:45.954Z,16.97
2023-05-05T18:33:12.566Z,16.82
2023-05-05T18:35:39.104Z,16.63
2023-05-05T18:38:05.860Z,16.46
2023-05-05T18:40:32.674Z,16.26
2023-05-05T18:42:59.298Z,16.20
2023-05-05T18:45:25.916Z,16.09
2023-05-05T18:47:52.551Z,15.99
2023-05-05T18:50:19.118Z,15.99
2023-05-05T18:52:45.710Z,15.76
2023-05-05T18:55:12.579Z,15.65
2023-05-05T18:57:39.248Z,15.52
2023-05-05T19:00:06.479Z,15.41
2023-05-05T19:02:33.140Z,15.27
2023-05-05T19:04:59.783Z,15.20
2023-05-05T19:07:34.871Z,15.07
2023-05-05T19:10:06.425Z,15.03
2023-05-05T19:12:33.052Z,14.96
2023-05-05T19:14:59.616Z,14.90
2023-05-05T19:17:26.221Z,14.81
2023-05-05T19:19:52.806Z,14.70
2023-05-05T19:22:20.657Z,14.54
2023-05-05T19:24:47.283Z,14.43
2023-05-05T19:27:16.398Z,14.25
2023-05-05T19:29:44.038Z,14.15
2023-05-05T19:32:10.843Z,14.07
2023-05-05T19:34:37.618Z,13.96
2023-05-05T19:37:04.222Z,14.03
2023-05-05T19:39:31.341Z,14.06
2023-05-05T19:41:57.937Z,14.10
2023-05-05T19:44:24.536Z,14.04
2023-05-05T19:46:52.767Z,14.01
2023-05-05T19:49:19.406Z,14.04
2023-05-05T19:51:47.666Z,14.03
2023-05-05T19:54:14.228Z,13.94
2023-05-05T19:56:40.837Z,13.84
2023-05-05T19:59:07.559Z,13.73
2023-05-05T20:01:35.401Z,13.61
2023-05-05T20:04:03.675Z,13.46
2023-05-05T20:06:30.489Z,13.34
2023-05-05T20:08:57.046Z,13.13
2023-05-05T20:11:25.818Z,13.11
2023-05-05T20:13:53.001Z,13.04
2023-05-05T20:16:20.201Z,13.02
2023-05-05T20:18:46.867Z,13.03
2023-05-05T20:21:14.095Z,12.95
2023-05-05T20:23:42.768Z,12.88
2023-05-05T20:26:09.537Z,12.83
2023-05-05T20:28:36.934Z,12.92
2023-05-05T20:31:03.627Z,12.93
2023-05-05T20:33:30.370Z,12.92
2023-05-05T20:35:57.088Z,12.98
2023-05-05T20:38:23.857Z,12.96
2023-05-05T20:40:50.981Z,12.93
2023-05-05T20:43:18.171Z,12.87
2023-05-05T20:45:45.053Z,12.86
2023-05-05T20:48:11.678Z,12.84
2023-05-05T20:50:41.704Z,12.77
2023-05-05T20:53:09.386Z,12.73
2023-05-05T20:55:35.977Z,12.73
2023-05-05T20:58:05.519Z,12.71
2023-05-05T21:00:32.249Z,12.70
2023-05-05T21:02:59.213Z,12.77
2023-05-05T21:05:26.069Z,12.77
2023-05-05T21:07:54.111Z,12.73
2023-05-05T21:10:20.850Z,12.68
2023-05-05T21:12:47.470Z,12.64
2023-05-05T21:15:14.214Z,12.60
2023-05-05T21:17:42.858Z,12.52
2023-05-05T21:20:10.262Z,12.43
2023-05-05T21:22:37.373Z,12.37
2023-05-05T21:25:15.954Z,12.29
2023-05-05T21:27:42.634Z,12.24
2023-05-05T21:30:11.218Z,12.15
2023-05-05T21:32:39.263Z,12.06
2023-05-05T21:35:07.666Z,12.00
2023-05-05T21:37:36.549Z,11.96
2023-05-05T21:40:03.279Z,11.99
2023-05-05T21:42:30.923Z,11.89
2023-05-05T21:44:57.466Z,11.89
2023-05-05T21:47:24.280Z,11.88
2023-05-05T21:49:50.900Z,11.82
2023-05-05T21:52:17.485Z,11.69
2023-05-05T21:54:45.305Z,11.64
2023-05-05T21:57:11.887Z,11.62
2023-05-05T21:59:38.491Z,11.53
2023-05-05T22:02:05.127Z,11.44
2023-05-05T22:04:31.649Z,11.38
2023-05-05T22:06:58.374Z,11.32
2023-05-05T22:09:24.952Z,11.18
2023-05-05T22:11:51.590Z,11.06
2023-05-05T22:14:18.163Z,10.99
2023-05-05T22:16:44.899Z,10.97
2023-05-05T22:19:11.541Z,10.88
2023-05-05T22:21:38.102Z,10.90
2023-05-05T22:24:05.330Z,10.84
2023-05-05T22:26:31.909Z,10.68
2023-05-05T22:28:58.531Z,10.56
2023-05-05T22:31:25.198Z,10.48
2023-05-05T22:33:51.882Z,10.36
2023-05-05T22:36:18.946Z,10.24
2023-05-05T22:38:45.660Z,10.14
2023-05-05T22:41:12.505Z,10.14
2023-05-05T22:43:39.165Z,10.15
2023-05-05T22:46:05.917Z,10.14
2023-05-05T22:48:32.538Z,10.14
2023-05-05T22:50:59.868Z,10.16
2023-05-05T22:53:26.579Z,10.06
2023-05-05T22:55:53.200Z,10.00
2023-05-05T22:58:20.990Z,9.89
2023-05-05T23:00:49.026Z,9.82
2023-05-05T23:03:15.614Z,9.70
2023-05-05T23:05:42.136Z,9.64
2023-05-05T23:08:08.777Z,9.58
2023-05-05T23:10:35.417Z,9.57
2023-05-05T23:13:02.222Z,9.49
2023-05-05T23:15:28.841Z,9.64
2023-05-05T23:17:55.658Z,9.79
2023-05-05T23:20:22.418Z,9.92
2023-05-05T23:22:49.995Z,9.99
2023-05-05T23:25:16.615Z,10.03
2023-05-05T23:27:43.898Z,10.07
2023-05-05T23:30:11.050Z,10.13
2023-05-05T23:32:37.969Z,10.14
2023-05-05T23:35:05.065Z,10.17
2023-05-05T23:37:31.644Z,10.08
2023-05-05T23:39:58.264Z,10.04
2023-05-05T23:42:24.861Z,9.99
2023-05-05T23:44:51.473Z,9.98
2023-05-05T23:47:18.252Z,9.92
2023-05-05T23:49:44.841Z,9.85
2023-05-05T23:52:11.475Z,9.74
2023-05-05T23:54:38.043Z,9.69
2023-05-05T23:57:04.764Z,9.65
2023-05-05T23:59:31.391Z,9.56
